Time;durP1;ratioP1;P1;durP2;ratioP2;P2;SDS_P1;SDS_P2;PMS_P1;PMS_P2;Temp;Humidity;BMP_temperature;BMP_pressure;BME280_temperature;BME280_humidity;BME280_pressure;Samples;Min_cycle;Max_cycle;Signal;HPM_P1;HPM_P2
2022/05/05 00:00:56;;;;;;;4.97;1.85;;;;;;;-149.78;100.00;50361.91;4735918;30;20060;-69
2022/05/05 00:03:22;;;;;;;5.43;2.33;;;;;;;-149.78;100.00;50404.94;4735661;30;20076;-70
2022/05/05 00:05:48;;;;;;;5.15;2.03;;;;;;;-149.78;100.00;50428.41;4735718;30;20061;-70
2022/05/05 00:08:13;;;;;;;4.60;2.20;;;;;;;-149.78;100.00;50418.63;4735877;30;20435;-69
2022/05/05 00:16:08;;;;;;;3.92;1.83;;;;;;;-149.78;100.00;50432.31;4735613;30;20079;-69
2022/05/05 00:18:34;;;;;;;7.40;1.90;;;;;;;-149.78;100.00;50440.16;4735592;30;20532;-70
2022/05/05 00:20:59;;;;;;;4.80;1.90;;;;;;;-149.78;100.00;50383.44;4735490;30;20056;-69
2022/05/05 00:23:25;;;;;;;5.40;2.03;;;;;;;-149.78;100.00;50393.22;4735461;30;20138;-69
2022/05/05 00:25:50;;;;;;;4.70;2.08;;;;;;;-149.78;100.00;50426.47;4705382;30;20131;-69
2022/05/05 00:28:16;;;;;;;4.47;2.00;;;;;;;-149.78;100.00;50432.31;4735439;30;20052;-69
2022/05/05 00:30:41;;;;;;;3.35;2.15;;;;;;;-149.78;100.00;50412.78;4735367;30;20041;-69
2022/05/05 00:33:07;;;;;;;6.05;2.38;;;;;;;-149.78;100.00;50397.13;4735290;30;20044;-69
2022/05/05 00:35:32;;;;;;;5.70;2.08;;;;;;;-149.78;100.00;50420.59;4703998;30;20113;-69
2022/05/05 00:37:58;;;;;;;7.65;2.17;;;;;;;-149.78;100.00;50412.78;4696688;30;20634;-70
2022/05/05 00:40:24;;;;;;;7.22;2.30;;;;;;;-149.78;100.00;50428.41;4735222;30;20089;-69
2022/05/05 00:42:49;;;;;;;7.18;2.17;;;;;;;-149.78;100.00;50424.50;4735187;30;20102;-69
2022/05/05 00:45:15;;;;;;;6.70;2.13;;;;;;;-149.78;100.00;50404.94;4733727;30;20048;-69
2022/05/05 00:47:43;;;;;;;2.80;1.77;;;;;;;-149.78;100.00;50420.59;4719450;30;20137;-69
2022/05/05 00:50:11;;;;;;;4.90;2.00;;;;;;;-149.78;100.00;50424.50;4734462;30;20490;-69
2022/05/05 00:52:36;;;;;;;6.57;2.38;;;;;;;-149.78;100.00;50412.78;4735071;30;20043;-69
2022/05/05 00:55:02;;;;;;;6.32;2.17;;;;;;;-149.78;100.00;50440.16;4734908;30;20045;-69
2022/05/05 00:57:28;;;;;;;5.63;2.22;;;;;;;-149.78;100.00;50424.50;4719133;30;20049;-69
2022/05/05 00:59:55;;;;;;;4.07;2.40;;;;;;;-149.78;100.00;50389.31;4734805;30;20044;-69
2022/05/05 01:02:21;;;;;;;6.05;2.60;;;;;;;-149.78;100.00;50422.56;4734728;30;20039;-69
2022/05/05 01:04:47;;;;;;;4.45;2.40;;;;;;;-149.78;100.00;50414.72;4734634;30;20049;-70
2022/05/05 01:07:18;;;;;;;4.50;2.05;;;;;;;-149.78;100.00;50434.28;4734912;30;20056;-69
2022/05/05 01:09:43;;;;;;;5.05;2.58;;;;;;;-149.78;100.00;50428.41;4734719;30;20134;-69
2022/05/05 01:12:10;;;;;;;3.85;2.50;;;;;;;-149.78;100.00;50408.84;4726273;30;20123;-69
2022/05/05 01:14:37;;;;;;;8.50;2.15;;;;;;;-149.78;100.00;50408.84;4717153;30;20056;-69
2022/05/05 01:17:04;;;;;;;6.63;2.25;;;;;;;-149.78;100.00;50420.59;4717221;30;20486;-69
2022/05/05 01:19:30;;;;;;;3.78;2.13;;;;;;;-149.78;100.00;50438.19;4718149;30;20516;-69
2022/05/05 01:21:57;;;;;;;5.85;2.00;;;;;;;-149.78;100.00;50403.00;4734511;30;20127;-70
2022/05/05 01:28:10;;;;;;;4.68;2.50;;;;;;;-149.78;100.00;50404.94;4734271;30;20048;-70
2022/05/05 01:29:54;;;;;;;2.67;1.90;;;;;;;-149.78;100.00;50401.03;4734416;30;20041;-70
2022/05/05 01:32:21;;;;;;;4.05;1.73;;;;;;;-149.78;100.00;50455.81;4718046;30;20131;-70
2022/05/05 01:34:47;;;;;;;5.53;2.10;;;;;;;-149.78;100.00;50399.09;4716874;30;20127;-70
2022/05/05 01:37:13;;;;;;;4.13;1.80;;;;;;;-149.78;100.00;50424.50;4720054;30;20144;-69
2022/05/05 01:39:39;;;;;;;5.93;1.90;;;;;;;-149.78;100.00;50389.31;4733042;30;20654;-69
2022/05/05 01:42:05;;;;;;;2.75;1.73;;;;;;;-149.78;100.00;50424.50;4734299;30;20131;-70
2022/05/05 01:44:31;;;;;;;6.03;2.13;;;;;;;-149.78;100.00;50369.75;4734098;30;20079;-70
2022/05/05 01:46:56;;;;;;;9.30;2.45;;;;;;;-149.78;100.00;50447.97;4734148;30;20112;-70
2022/05/05 01:49:22;;;;;;;6.20;1.80;;;;;;;-149.78;100.00;50397.13;4734086;30;20128;-69
2022/05/05 01:51:48;;;;;;;2.70;1.63;;;;;;;-149.78;100.00;50424.50;4734113;30;20041;-70
2022/05/05 01:54:14;;;;;;;5.30;1.80;;;;;;;-149.78;100.00;50365.84;4734075;30;20087;-70
2022/05/05 01:56:40;;;;;;;3.00;1.75;;;;;;;-149.78;100.00;50422.56;4721266;30;20049;-70
2022/05/05 01:59:06;;;;;;;3.13;1.70;;;;;;;-149.78;100.00;50367.78;4719875;30;20048;-69
2022/05/05 02:01:33;;;;;;;3.15;1.70;;;;;;;-149.78;100.00;50420.59;4717501;30;20040;-70
2022/05/05 02:04:00;;;;;;;5.13;1.98;;;;;;;-149.78;100.00;50436.25;4700859;30;20041;-70
2022/05/05 02:06:27;;;;;;;3.80;1.92;;;;;;;-149.78;100.00;50404.94;4699784;30;20465;-70
2022/05/05 02:08:52;;;;;;;2.78;2.00;;;;;;;-149.78;100.00;50385.38;4716198;30;20076;-69
2022/05/05 02:11:18;;;;;;;3.03;1.88;;;;;;;-149.78;100.00;50385.38;4716464;30;20065;-69
2022/05/05 02:13:44;;;;;;;3.22;1.85;;;;;;;-149.78;100.00;50406.91;4716553;30;20119;-70
2022/05/05 02:16:09;;;;;;;4.32;1.83;;;;;;;-149.78;100.00;50451.88;4724772;30;20048;-70
2022/05/05 02:18:35;;;;;;;4.45;2.25;;;;;;;-149.78;100.00;50416.69;4734099;30;20052;-70
2022/05/05 02:21:01;;;;;;;6.47;2.13;;;;;;;-149.78;100.00;50430.38;4733792;30;20061;-70
2022/05/05 02:23:26;;;;;;;3.67;2.15;;;;;;;-149.78;100.00;50424.50;4733903;30;20052;-69
2022/05/05 02:25:53;;;;;;;3.70;2.10;;;;;;;-149.78;100.00;50434.28;4718191;30;20047;-70
2022/05/05 02:28:18;;;;;;;2.47;1.95;;;;;;;-149.78;100.00;50447.97;4733852;30;20045;-70
2022/05/05 02:30:44;;;;;;;5.35;2.20;;;;;;;-149.78;100.00;50451.88;4733916;30;20044;-69
2022/05/05 02:33:10;;;;;;;2.78;2.03;;;;;;;-149.78;100.00;50422.56;4695805;30;20053;-69
2022/05/05 02:35:35;;;;;;;3.80;2.28;;;;;;;-149.78;100.00;50428.41;4686402;30;20041;-70
2022/05/05 02:40:45;;;;;;;4.35;2.25;;;;;;;-149.78;100.00;50412.78;4725159;30;20044;-69
2022/05/05 02:43:11;;;;;;;3.65;1.92;;;;;;;-149.78;100.00;50432.31;4715946;30;20044;-70
2022/05/05 02:45:38;;;;;;;7.88;1.85;;;;;;;-149.78;100.00;50459.72;4733695;30;20079;-70
2022/05/05 02:48:05;;;;;;;5.32;2.13;;;;;;;-149.78;100.00;50451.88;4733348;30;20053;-69
2022/05/05 02:50:31;;;;;;;4.15;2.60;;;;;;;-149.78;100.00;50430.38;4717686;30;20040;-69
2022/05/05 02:52:56;;;;;;;3.72;2.28;;;;;;;-149.78;100.00;50447.97;4733504;30;20126;-70
2022/05/05 02:55:23;;;;;;;6.30;2.38;;;;;;;-149.78;100.00;50428.41;4733532;30;20481;-69
2022/05/05 02:57:49;;;;;;;4.25;2.25;;;;;;;-149.78;100.00;50440.16;4733574;30;20032;-70
2022/05/05 03:00:15;;;;;;;5.40;2.13;;;;;;;-149.78;100.00;50447.97;4733518;30;20466;-70
2022/05/05 03:02:42;;;;;;;4.05;2.60;;;;;;;-149.78;100.00;50420.59;4733485;30;20152;-69
2022/05/05 03:05:13;;;;;;;4.55;2.47;;;;;;;-149.78;100.00;50403.00;4733357;30;20405;-69
2022/05/05 03:07:41;;;;;;;4.78;2.50;;;;;;;-149.78;100.00;50406.91;4717920;30;20068;-69
2022/05/05 03:10:07;;;;;;;10.50;2.70;;;;;;;-149.78;100.00;50416.69;4733606;30;20057;-70
2022/05/05 03:12:33;;;;;;;4.53;2.25;;;;;;;-149.78;100.00;50404.94;4733618;30;20037;-69
2022/05/05 03:14:59;;;;;;;4.40;2.42;;;;;;;-149.78;100.00;50428.41;4720333;30;20084;-70
2022/05/05 03:17:25;;;;;;;3.75;2.35;;;;;;;-149.78;100.00;50438.19;4736581;30;20052;-70
2022/05/05 03:19:51;;;;;;;7.38;2.33;;;;;;;-149.78;100.00;50459.72;4736759;30;20036;-69
2022/05/05 03:22:17;;;;;;;4.72;2.53;;;;;;;-149.78;100.00;50422.56;4736630;30;20045;-69
2022/05/05 03:24:43;;;;;;;3.80;2.20;;;;;;;-149.78;100.00;50440.16;4736644;30;20052;-70
2022/05/05 03:27:08;;;;;;;3.92;2.30;;;;;;;-149.78;100.00;50436.25;4736684;30;20049;-70
2022/05/05 03:29:34;;;;;;;6.28;2.40;;;;;;;-149.78;100.00;50447.97;4720936;30;20411;-70
2022/05/05 03:32:00;;;;;;;5.32;2.80;;;;;;;-149.78;100.00;50418.63;4720889;30;20450;-70
2022/05/05 03:34:26;;;;;;;4.15;2.40;;;;;;;-149.78;100.00;50428.41;4720793;30;20449;-70
2022/05/05 03:36:52;;;;;;;10.32;2.92;;;;;;;-149.78;100.00;50459.72;4735551;30;20571;-70
2022/05/05 03:39:17;;;;;;;3.75;2.55;;;;;;;-149.78;100.00;50436.25;4718919;30;20669;-70
2022/05/05 03:41:43;;;;;;;5.72;2.70;;;;;;;-149.78;100.00;50408.84;4718989;30;20045;-70
2022/05/05 03:44:08;;;;;;;7.00;2.55;;;;;;;-149.78;100.00;50455.81;4718820;30;20497;-69
2022/05/05 03:46:34;;;;;;;3.50;2.67;;;;;;;-149.78;100.00;50447.97;4721166;30;20124;-70
2022/05/05 03:49:00;;;;;;;4.15;2.30;;;;;;;-149.78;100.00;50455.81;4720314;30;20127;-70
2022/05/05 03:51:25;;;;;;;9.63;2.85;;;;;;;-149.78;100.00;50434.28;4735946;30;20551;-70
2022/05/05 03:53:52;;;;;;;5.93;2.17;;;;;;;-149.78;100.00;50467.53;4734919;30;20044;-70
2022/05/05 03:56:18;;;;;;;3.22;2.17;;;;;;;-149.78;100.00;50447.97;4735705;30;20486;-70
2022/05/05 03:58:43;;;;;;;4.80;2.53;;;;;;;-149.78;100.00;50436.25;4730252;30;20140;-70
2022/05/05 04:01:09;;;;;;;3.78;2.47;;;;;;;-149.78;100.00;50436.25;4703759;30;20053;-69
2022/05/05 04:03:36;;;;;;;6.65;2.35;;;;;;;-149.78;100.00;50436.25;4718307;30;20036;-70
2022/05/05 04:06:06;;;;;;;5.95;2.80;;;;;;;-149.78;100.00;50471.44;4718200;30;20406;-70
2022/05/05 04:08:34;;;;;;;5.35;2.95;;;;;;;-149.78;100.00;50432.31;4716468;30;20064;-70
2022/05/05 04:10:59;;;;;;;7.03;2.33;;;;;;;-149.78;100.00;50436.25;4717405;30;20044;-69
2022/05/05 04:13:26;;;;;;;7.30;2.35;;;;;;;-149.78;100.00;50451.88;4717783;30;20052;-70
2022/05/05 04:15:52;;;;;;;5.47;2.13;;;;;;;-149.78;100.00;50418.63;4718313;30;20041;-70
2022/05/05 04:18:18;;;;;;;5.63;2.58;;;;;;;-149.78;100.00;50447.97;4718186;30;20049;-69
2022/05/05 04:20:44;;;;;;;4.82;2.47;;;;;;;-149.78;100.00;50451.88;4702538;30;20141;-69
2022/05/05 04:23:10;;;;;;;4.00;2.45;;;;;;;-149.78;100.00;50467.53;4718020;30;20096;-70
2022/05/05 04:25:42;;;;;;;4.72;2.30;;;;;;;-149.78;100.00;50459.72;4701704;30;20049;-69
2022/05/05 04:28:08;;;;;;;6.15;2.53;;;;;;;-149.78;100.00;50383.44;4702105;30;20041;-70
2022/05/05 04:30:35;;;;;;;3.55;2.22;;;;;;;-149.78;100.00;50455.81;4717937;30;20036;-69
2022/05/05 04:33:01;;;;;;;6.45;2.47;;;;;;;-149.78;100.00;50440.16;4716837;30;20410;-69
2022/05/05 04:35:27;;;;;;;4.22;2.58;;;;;;;-149.78;100.00;50428.41;4717749;30;20033;-69
2022/05/05 04:37:52;;;;;;;8.35;2.38;;;;;;;-149.78;100.00;50424.50;4717777;30;20052;-69
2022/05/05 04:40:18;;;;;;;3.60;2.20;;;;;;;-149.78;100.00;50447.97;4698843;30;20056;-69
2022/05/05 04:42:44;;;;;;;4.40;2.67;;;;;;;-149.78;100.00;50461.66;4700398;30;20043;-70
2022/05/05 04:45:11;;;;;;;5.07;2.85;;;;;;;-149.78;100.00;50424.50;4700186;30;20498;-70
2022/05/05 04:47:37;;;;;;;5.22;2.58;;;;;;;-149.78;100.00;50440.16;4700367;30;20042;-70
2022/05/05 04:50:03;;;;;;;6.10;2.58;;;;;;;-149.78;100.00;50428.41;4700205;30;20491;-70
2022/05/05 04:52:31;;;;;;;6.80;2.53;;;;;;;-149.78;100.00;50444.06;4699221;30;20056;-69
2022/05/05 04:54:57;;;;;;;5.32;2.70;;;;;;;-149.78;100.00;50434.28;4700294;30;20433;-70
2022/05/05 04:57:23;;;;;;;4.68;2.30;;;;;;;-149.78;100.00;50426.47;4700024;30;20041;-69
2022/05/05 04:59:49;;;;;;;5.22;2.63;;;;;;;-149.78;100.00;50432.31;4700377;30;20041;-69
2022/05/05 05:02:14;;;;;;;5.65;2.88;;;;;;;-149.78;100.00;50487.09;4700011;30;20041;-69
2022/05/05 05:04:42;;;;;;;6.75;2.83;;;;;;;-149.78;100.00;50432.31;4700040;30;20049;-69
2022/05/05 05:07:08;;;;;;;4.25;2.80;;;;;;;-149.78;100.00;50416.69;4699971;30;20381;-69
2022/05/05 05:09:34;;;;;;;5.63;2.53;;;;;;;-149.78;100.00;50436.25;4701024;30;20049;-69
2022/05/05 05:12:01;;;;;;;6.53;2.80;;;;;;;-149.78;100.00;50428.41;4717246;30;20037;-69
2022/05/05 05:14:27;;;;;;;5.90;3.00;;;;;;;-149.78;100.00;50428.41;4701459;30;20502;-69
2022/05/05 05:16:52;;;;;;;6.15;2.53;;;;;;;-149.78;100.00;50457.75;4716987;30;20049;-69
2022/05/05 05:19:19;;;;;;;5.30;2.58;;;;;;;-149.78;100.00;50434.28;4717054;30;20634;-69
2022/05/05 05:21:46;;;;;;;4.97;2.60;;;;;;;-149.78;100.00;50399.09;4717101;30;20052;-68
2022/05/05 05:24:13;;;;;;;6.63;3.13;;;;;;;-149.78;100.00;50403.00;4716810;30;20084;-69
2022/05/05 05:26:40;;;;;;;4.53;2.88;;;;;;;-149.78;100.00;50447.97;4717070;30;20037;-69
2022/05/05 05:29:05;;;;;;;5.70;3.20;;;;;;;-149.78;100.00;50436.25;4701157;30;20037;-69
2022/05/05 05:31:31;;;;;;;5.68;3.10;;;;;;;-149.78;100.00;50440.16;4716954;30;20067;-69
2022/05/05 05:33:57;;;;;;;5.03;3.17;;;;;;;-149.78;100.00;50440.16;4701404;30;20053;-69
2022/05/05 05:36:22;;;;;;;6.30;2.95;;;;;;;-149.78;100.00;50451.88;4701071;30;20045;-69
2022/05/05 05:38:48;;;;;;;5.07;2.70;;;;;;;-149.78;100.00;50389.31;4716847;30;20134;-69
2022/05/05 05:41:14;;;;;;;5.50;2.50;;;;;;;-149.78;100.00;50424.50;4701087;30;20041;-69
2022/05/05 05:43:39;;;;;;;4.38;2.50;;;;;;;-149.78;100.00;50416.69;4701211;30;20045;-69
2022/05/05 05:46:05;;;;;;;4.55;2.55;;;;;;;-149.78;100.00;50397.13;4716599;30;20041;-69
2022/05/05 05:48:31;;;;;;;5.68;2.50;;;;;;;-149.78;100.00;50416.69;4701180;30;20092;-69
2022/05/05 05:50:57;;;;;;;3.67;2.42;;;;;;;-149.78;100.00;50447.97;4716720;30;20042;-69
2022/05/05 05:53:22;;;;;;;6.43;2.78;;;;;;;-149.78;100.00;50432.31;4716413;30;20048;-69
2022/05/05 05:55:48;;;;;;;3.38;2.50;;;;;;;-149.78;100.00;50416.69;4716598;30;20033;-69
2022/05/05 05:58:13;;;;;;;4.45;2.50;;;;;;;-149.78;100.00;50436.25;4716584;30;20047;-69
2022/05/05 06:00:39;;;;;;;5.25;3.20;;;;;;;-149.78;100.00;50404.94;4716616;30;20041;-69
2022/05/05 06:05:50;;;;;;;4.43;2.33;;;;;;;-149.78;100.00;50467.53;4716528;30;20482;-70
2022/05/05 06:08:15;;;;;;;3.17;2.42;;;;;;;-149.78;100.00;50412.78;4716297;30;20056;-70
2022/05/05 06:10:41;;;;;;;4.85;2.65;;;;;;;-149.78;100.00;50373.66;4716040;30;20140;-70
2022/05/05 06:13:07;;;;;;;5.45;2.63;;;;;;;-149.78;100.00;50408.84;4715736;30;20052;-70
2022/05/05 06:15:33;;;;;;;7.43;2.95;;;;;;;-149.78;100.00;50393.22;4715838;30;20056;-69
2022/05/05 06:17:58;;;;;;;3.42;2.55;;;;;;;-149.78;100.00;50416.69;4716264;30;20038;-70
2022/05/05 06:20:24;;;;;;;6.15;2.55;;;;;;;-149.78;100.00;50365.84;4700667;30;20453;-70
2022/05/05 06:22:52;;;;;;;6.25;3.17;;;;;;;-149.78;100.00;50401.03;4716274;30;20068;-71
2022/05/05 06:25:23;;;;;;;4.97;3.10;;;;;;;-149.78;100.00;50393.22;4716175;30;20045;-69
2022/05/05 06:27:49;;;;;;;6.63;2.92;;;;;;;-149.78;100.00;50365.84;4715253;30;20533;-69
2022/05/05 06:30:16;;;;;;;4.88;2.72;;;;;;;-149.78;100.00;50379.53;4699577;30;20061;-70
2022/05/05 06:32:42;;;;;;;4.43;2.97;;;;;;;-149.78;100.00;50373.66;4700790;30;20429;-70
2022/05/05 06:35:09;;;;;;;4.07;2.67;;;;;;;-149.78;100.00;50354.09;4716149;30;20448;-69
2022/05/05 06:37:34;;;;;;;5.70;3.15;;;;;;;-149.78;100.00;50342.38;4716292;30;20044;-69
2022/05/05 06:40:03;;;;;;;5.40;3.15;;;;;;;-149.78;100.00;50338.44;4716216;30;20033;-68
2022/05/05 06:42:28;;;;;;;3.90;2.67;;;;;;;-149.78;100.00;50291.50;4700157;30;20037;-69
2022/05/05 06:44:55;;;;;;;4.93;2.60;;;;;;;-149.78;100.00;50291.50;4700665;30;20048;-69
2022/05/05 06:47:21;;;;;;;3.53;2.53;;;;;;;-149.78;100.00;50260.22;4715925;30;20125;-69
2022/05/05 06:49:49;;;;;;;4.40;2.50;;;;;;;-149.78;100.00;50275.88;4718851;30;20041;-69
2022/05/05 06:52:14;;;;;;;4.57;2.50;;;;;;;-149.78;100.00;50238.72;4702911;30;20276;-69
2022/05/05 06:54:40;;;;;;;4.43;2.30;;;;;;;-149.78;100.00;50226.97;4718706;30;20033;-69
2022/05/05 06:57:05;;;;;;;4.13;2.72;;;;;;;-149.78;100.00;50209.38;4719323;30;20076;-69
2022/05/05 06:59:31;;;;;;;4.25;2.42;;;;;;;-149.78;100.00;50174.19;4719428;30;20049;-70
2022/05/05 07:02:02;;;;;;;2.80;1.98;;;;;;;-149.78;100.00;50205.47;4719327;30;20465;-70
2022/05/05 07:07:19;;;;;;;4.30;2.30;;;;;;;-149.78;100.00;50158.53;4718195;30;20049;-69
2022/05/05 07:12:32;;;;;;;4.75;2.20;;;;;;;-149.78;100.00;50123.34;4717318;30;20037;-70
2022/05/05 07:14:58;;;;;;;3.58;2.25;;;;;;;-149.78;100.00;50150.72;4701758;30;20053;-70
2022/05/05 07:17:26;;;;;;;4.22;2.30;;;;;;;-149.78;100.00;50080.31;4717293;30;20045;-70
2022/05/05 07:19:52;;;;;;;2.83;2.22;;;;;;;-149.78;100.00;50107.69;4718651;30;20033;-70
2022/05/05 07:22:18;;;;;;;2.80;2.20;;;;;;;-149.78;100.00;50064.66;4718589;30;20073;-70
2022/05/05 07:24:44;;;;;;;4.57;2.40;;;;;;;-149.78;100.00;50095.94;4717483;30;20075;-70
2022/05/05 07:27:10;;;;;;;5.28;2.45;;;;;;;-149.78;77.71;50049.03;4717333;30;20486;-70
2022/05/05 07:29:41;;;;;;;2.88;2.05;;;;;;;-149.78;70.13;50056.84;4717747;30;20043;-69
2022/05/05 07:32:07;;;;;;;2.20;1.98;;;;;;;-149.78;66.64;50033.38;4716487;30;20124;-70
2022/05/05 07:34:34;;;;;;;3.83;2.10;;;;;;;-149.78;61.11;50041.19;4703019;30;20041;-69
2022/05/05 07:37:01;;;;;;;3.45;1.88;;;;;;;-149.78;57.03;50037.28;4718780;30;20056;-70
2022/05/05 07:39:26;;;;;;;3.42;2.17;;;;;;;-149.78;61.03;50029.47;4718190;30;20041;-70
2022/05/05 07:41:52;;;;;;;3.28;2.03;;;;;;;-149.78;57.71;50033.38;4718816;30;20595;-70
2022/05/05 07:44:17;;;;;;;4.30;2.42;;;;;;;-149.78;63.75;50090.09;4718603;30;20051;-70
2022/05/05 07:46:43;;;;;;;4.22;2.45;;;;;;;-149.78;70.75;50086.19;4703050;30;20099;-69
2022/05/05 07:49:09;;;;;;;3.45;2.30;;;;;;;-149.78;71.63;50115.50;4718542;30;20136;-69
2022/05/05 07:51:35;;;;;;;5.38;2.70;;;;;;;-149.78;80.87;50174.19;4703055;30;20053;-69
2022/05/05 07:56:46;;;;;;;4.50;2.65;;;;;;;-149.78;80.14;50189.81;4718661;30;20060;-69
2022/05/05 07:59:12;;;;;;;5.47;3.10;;;;;;;-149.78;84.80;50213.28;4718149;30;20477;-69
2022/05/05 08:01:39;;;;;;;4.28;2.47;;;;;;;-149.78;83.79;50221.13;4718573;30;20371;-69
2022/05/05 08:04:05;;;;;;;4.82;2.42;;;;;;;-149.78;85.16;50211.34;4718219;30;20040;-70
2022/05/05 08:06:33;;;;;;;3.10;2.40;;;;;;;-149.78;83.25;50209.38;4702534;30;20057;-69
2022/05/05 08:08:59;;;;;;;3.90;2.50;;;;;;;-149.78;75.20;50174.19;4716822;30;20041;-69
2022/05/05 08:11:24;;;;;;;5.47;2.53;;;;;;;-149.78;65.70;50135.06;4702545;30;20060;-69
2022/05/05 08:13:50;;;;;;;5.30;2.20;;;;;;;-149.78;61.79;50123.34;4718933;30;20067;-69
2022/05/05 08:16:19;;;;;;;4.15;2.17;;;;;;;-149.78;56.63;50088.13;4717658;30;20108;-69
2022/05/05 08:18:45;;;;;;;4.18;2.00;;;;;;;-149.78;54.20;50041.19;4717264;30;20041;-70
2022/05/05 08:21:10;;;;;;;4.47;2.10;;;;;;;-149.78;52.83;50072.50;4717541;30;20067;-69
2022/05/05 08:23:37;;;;;;;3.00;2.03;;;;;;;-149.78;51.68;50080.31;4702104;30;20486;-69
2022/05/05 08:28:47;;;;;;;4.32;2.55;;;;;;;-149.78;47.32;50033.38;4717311;30;20043;-70
2022/05/05 08:31:13;;;;;;;5.07;2.30;;;;;;;-149.78;47.35;50041.19;4687744;30;20041;-69
2022/05/05 08:33:39;;;;;;;3.75;1.95;;;;;;;-149.78;46.02;50006.00;4701553;30;20367;-70
2022/05/05 08:36:06;;;;;;;2.33;2.00;;;;;;;-149.78;45.62;50009.91;4717550;30;20382;-69
2022/05/05 08:38:32;;;;;;;2.20;1.90;;;;;;;-149.78;44.29;49986.44;4717646;30;20041;-69
2022/05/05 08:40:58;;;;;;;1.65;1.55;;;;;;;-149.78;41.65;49955.16;4717751;30;20048;-69
2022/05/05 08:43:24;;;;;;;4.00;1.98;;;;;;;-149.78;42.33;49955.16;4717455;30;20075;-70
2022/05/05 08:45:53;;;;;;;3.15;2.20;;;;;;;-149.78;41.93;49959.06;4717579;30;20467;-69
2022/05/05 08:48:19;;;;;;;2.65;1.90;;;;;;;-149.78;43.26;49982.53;4717293;30;20067;-70
2022/05/05 08:51:00;;;;;;;3.22;2.13;;;;;;;-149.78;43.27;49951.25;4717536;30;20045;-69
2022/05/05 08:53:32;;;;;;;2.30;1.90;;;;;;;-149.78;43.07;49962.97;4717367;30;20059;-69
2022/05/05 08:56:00;;;;;;;3.28;2.00;;;;;;;-149.78;42.11;49947.34;4687413;30;20045;-70
2022/05/05 08:58:27;;;;;;;6.10;2.25;;;;;;;-149.78;45.00;49998.19;4717382;30;20498;-69
2022/05/05 09:00:52;;;;;;;2.45;2.10;;;;;;;-149.78;42.16;49959.06;4717215;30;20062;-69
2022/05/05 09:03:19;;;;;;;2.85;2.00;;;;;;;-149.78;44.37;50009.91;4717466;30;20473;-69
2022/05/05 09:05:53;;;;;;;3.92;2.03;;;;;;;-149.78;46.42;50002.09;4701629;30;20056;-69
2022/05/05 09:08:25;;;;;;;5.25;2.30;;;;;;;-149.78;44.60;49970.78;4701588;30;20068;-70
2022/05/05 09:11:05;;;;;;;5.20;2.60;;;;;;;-149.78;45.58;49978.63;4716858;30;20041;-69
2022/05/05 09:13:36;;;;;;;4.13;2.40;;;;;;;-149.78;45.59;49947.34;4701278;30;20126;-69
2022/05/05 09:16:04;;;;;;;4.93;2.57;;;;;;;-149.78;44.50;49968.84;4717137;30;20045;-69
2022/05/05 09:18:34;;;;;;;3.00;2.20;;;;;;;-149.78;42.86;49927.78;4717313;30;20593;-67
2022/05/05 09:21:03;;;;;;;4.88;2.42;;;;;;;-149.78;43.15;49982.53;4717129;30;20584;-69
2022/05/05 09:24:34;;;;;;;2.55;2.35;;;;;;;-149.78;44.13;49990.34;4717188;30;20800;-68
2022/05/05 09:26:27;;;;;;;5.50;2.17;;;;;;;-149.78;43.13;49970.78;4716761;30;20041;-68
2022/05/05 09:28:53;;;;;;;4.47;2.15;;;;;;;-149.78;42.62;49961.03;4701371;30;20076;-68
2022/05/05 09:31:21;;;;;;;3.60;2.08;;;;;;;-149.78;42.28;49947.34;4716815;30;20052;-69
2022/05/05 09:33:47;;;;;;;3.78;2.65;;;;;;;-149.78;42.32;49931.69;4716780;30;20103;-68
2022/05/05 09:36:13;;;;;;;4.00;2.13;;;;;;;-149.78;43.73;49939.50;4716528;30;20053;-69
2022/05/05 09:38:54;;;;;;;4.32;2.50;;;;;;;-149.78;41.26;49962.97;4687057;30;20496;-69
2022/05/05 09:41:25;;;;;;;3.30;2.20;;;;;;;-149.78;42.26;49974.72;4716807;30;20107;-68
2022/05/05 09:44:00;;;;;;;6.57;2.70;;;;;;;-149.78;41.29;49931.69;4716859;30;20441;-68
2022/05/05 09:46:26;;;;;;;4.72;2.40;;;;;;;-149.78;41.98;49929.72;4716628;30;20051;-68
2022/05/05 09:49:10;;;;;;;3.42;2.50;;;;;;;-149.78;41.63;49959.06;4701026;30;20037;-69
2022/05/05 09:57:42;;;;;;;3.33;2.22;;;;;;;-149.78;44.54;49990.34;4716401;30;20490;-68
2022/05/05 10:00:24;;;;;;;4.22;2.22;;;;;;;-149.78;48.37;50050.97;4716416;30;20132;-67
2022/05/05 10:05:42;;;;;;;3.25;2.05;;;;;;;-149.78;49.96;50094.00;4716406;30;20114;-67
2022/05/05 10:08:09;;;;;;;4.28;2.40;;;;;;;-149.78;51.59;50094.00;4700698;30;20032;-68
2022/05/05 10:10:36;;;;;;;4.28;2.58;;;;;;;-149.78;52.66;50092.03;4716196;30;20083;-68
2022/05/05 10:13:01;;;;;;;4.70;2.40;;;;;;;-149.78;51.78;50080.31;4716351;30;20037;-68
2022/05/05 10:15:27;;;;;;;4.55;2.72;;;;;;;-149.78;54.19;50131.16;4715953;30;20060;-67
2022/05/05 10:17:54;;;;;;;3.63;2.72;;;;;;;-149.78;56.22;50117.47;4716432;30;20051;-67
2022/05/05 10:20:20;;;;;;;3.47;2.20;;;;;;;-149.78;55.52;50103.78;4700707;30;20056;-68
2022/05/05 10:22:55;;;;;;;5.03;2.70;;;;;;;-149.78;52.86;50082.25;4715523;30;20102;-67
2022/05/05 10:25:26;;;;;;;6.28;2.50;;;;;;;-149.78;52.40;50052.94;4716028;30;20052;-68
2022/05/05 10:27:52;;;;;;;4.20;2.70;;;;;;;-149.78;51.32;50025.56;4700627;30;20049;-67
2022/05/05 10:30:34;;;;;;;7.35;2.33;;;;;;;-149.78;54.22;49994.25;4716041;30;20107;-68
2022/05/05 10:33:01;;;;;;;3.65;2.15;;;;;;;-149.78;51.02;50033.38;4716119;30;20072;-69
2022/05/05 10:35:38;;;;;;;3.78;2.40;;;;;;;-149.78;49.72;50052.94;4716016;30;20080;-68
2022/05/05 10:38:03;;;;;;;6.43;2.75;;;;;;;-149.78;49.28;50017.72;4716017;30;20102;-67
2022/05/05 10:40:46;;;;;;;6.20;2.83;;;;;;;-149.78;49.99;50037.28;4716048;30;20441;-68
2022/05/05 10:43:11;;;;;;;;;;;;;;;-149.78;49.06;50080.31;4686246;30;20040;-68
2022/05/05 10:45:37;;;;;;;6.75;2.83;;;;;;;-149.78;50.62;50050.97;4716086;30;19922;-68
2022/05/05 10:48:06;;;;;;;4.03;2.60;;;;;;;-149.78;49.85;50060.75;4716103;30;20037;-68
2022/05/05 10:50:39;;;;;;;4.80;2.80;;;;;;;-149.78;51.50;50064.66;4715916;30;20052;-68
2022/05/05 10:53:07;;;;;;;7.47;2.65;;;;;;;-149.78;51.35;50064.66;4700210;30;20060;-68
2022/05/05 10:55:32;;;;;;;3.30;2.38;;;;;;;-149.78;51.33;50037.28;4715647;30;20094;-67
2022/05/05 10:57:58;;;;;;;4.38;2.20;;;;;;;-149.78;50.42;50033.38;4716101;30;20041;-70
2022/05/05 11:00:24;;;;;;;4.53;2.40;;;;;;;-149.78;50.56;50025.56;4715822;30;20041;-69
2022/05/05 11:02:56;;;;;;;6.13;2.78;;;;;;;-149.78;48.45;50041.19;4715893;30;20104;-69
2022/05/05 11:05:29;;;;;;;3.45;2.53;;;;;;;-149.78;50.03;50056.84;4714666;30;20127;-69
2022/05/05 11:08:19;;;;;;;7.18;2.45;;;;;;;-149.78;49.57;50043.16;4704926;30;20115;-69
2022/05/05 11:10:45;;;;;;;3.75;2.45;;;;;;;-149.78;50.40;50025.56;4733429;30;20114;-69
2022/05/05 11:13:31;;;;;;;7.68;2.70;;;;;;;-149.78;51.31;50099.88;4717504;30;20494;-68
2022/05/05 11:22:26;;;;;;;4.00;2.60;;;;;;;-149.78;52.28;50056.84;4717235;30;20103;-68
2022/05/05 11:24:53;;;;;;;9.23;2.67;;;;;;;-149.78;53.62;50064.66;4733190;30;20422;-68
2022/05/05 11:27:23;;;;;;;5.20;2.35;;;;;;;-149.78;51.69;50080.31;4732938;30;20036;-69
2022/05/05 11:29:56;;;;;;;3.92;2.15;;;;;;;-149.78;50.29;50045.09;4732034;30;20045;-69
2022/05/05 11:32:29;;;;;;;4.97;2.45;;;;;;;-149.78;49.66;50021.63;4733090;30;20041;-68
2022/05/05 11:34:55;;;;;;;3.70;2.40;;;;;;;-149.78;48.11;50029.47;4734441;30;20032;-68
2022/05/05 11:37:21;;;;;;;5.25;2.40;;;;;;;-149.78;49.14;50031.41;4720612;30;20568;-68
2022/05/05 11:39:48;;;;;;;5.80;3.50;;;;;;;-149.78;49.31;50041.19;4720537;30;20537;-69
2022/05/05 11:42:14;;;;;;;5.28;3.03;;;;;;;-149.78;51.14;50029.47;4734908;30;20106;-68
2022/05/05 11:44:43;;;;;;;7.75;2.72;;;;;;;-149.78;51.79;50060.75;4736261;30;20039;-68
2022/05/05 11:47:19;;;;;;;5.43;2.70;;;;;;;-149.78;53.09;50041.19;4736142;30;20070;-69
2022/05/05 11:49:47;;;;;;;4.40;3.08;;;;;;;-149.78;51.69;50045.09;4736122;30;20486;-68
2022/05/05 11:52:21;;;;;;;4.18;2.90;;;;;;;-149.78;54.12;50084.22;4736133;30;20055;-69